sensor_id;sensor_type;location;lat;lon;timestamp;P1;durP1;ratioP1;P2;durP2;ratioP2
21601;SDS011;10963;50.934;4.668;2022-10-16T00:01:44;1.40;;;1.30;;
21601;SDS011;10963;50.934;4.668;2022-10-16T00:04:13;2.53;;;1.53;;
21601;SDS011;10963;50.934;4.668;2022-10-16T00:06:39;2.03;;;1.30;;
21601;SDS011;10963;50.934;4.668;2022-10-16T00:09:07;2.90;;;1.57;;
21601;SDS011;10963;50.934;4.668;2022-10-16T00:11:34;2.60;;;1.53;;
21601;SDS011;10963;50.934;4.668;2022-10-16T00:14:03;5.63;;;1.70;;
21601;SDS011;10963;50.934;4.668;2022-10-16T00:16:31;3.50;;;1.37;;
21601;SDS011;10963;50.934;4.668;2022-10-16T00:18:58;2.60;;;1.40;;
21601;SDS011;10963;50.934;4.668;2022-10-16T00:21:25;5.07;;;1.30;;
21601;SDS011;10963;50.934;4.668;2022-10-16T00:23:54;1.47;;;1.00;;
21601;SDS011;10963;50.934;4.668;2022-10-16T00:26:22;1.20;;;1.00;;
21601;SDS011;10963;50.934;4.668;2022-10-16T00:28:51;2.13;;;1.10;;
21601;SDS011;10963;50.934;4.668;2022-10-16T00:31:20;1.83;;;1.07;;
21601;SDS011;10963;50.934;4.668;2022-10-16T00:33:51;2.93;;;1.20;;
21601;SDS011;10963;50.934;4.668;2022-10-16T00:36:20;1.10;;;1.00;;
21601;SDS011;10963;50.934;4.668;2022-10-16T00:38:52;1.47;;;1.17;;
21601;SDS011;10963;50.934;4.668;2022-10-16T00:41:19;1.93;;;1.27;;
21601;SDS011;10963;50.934;4.668;2022-10-16T00:43:53;2.37;;;1.10;;
21601;SDS011;10963;50.934;4.668;2022-10-16T00:46:25;1.13;;;1.03;;
21601;SDS011;10963;50.934;4.668;2022-10-16T00:49:07;3.13;;;1.73;;
21601;SDS011;10963;50.934;4.668;2022-10-16T00:51:40;1.70;;;1.27;;
21601;SDS011;10963;50.934;4.668;2022-10-16T00:54:13;1.00;;;0.90;;
21601;SDS011;10963;50.934;4.668;2022-10-16T00:56:51;1.77;;;1.10;;
21601;SDS011;10963;50.934;4.668;2022-10-16T00:59:20;1.33;;;0.97;;
21601;SDS011;10963;50.934;4.668;2022-10-16T01:01:52;1.30;;;1.07;;
21601;SDS011;10963;50.934;4.668;2022-10-16T01:04:19;2.20;;;0.90;;
21601;SDS011;10963;50.934;4.668;2022-10-16T01:14:47;3.00;;;1.20;;
21601;SDS011;10963;50.934;4.668;2022-10-16T01:20:00;3.70;;;1.20;;
21601;SDS011;10963;50.934;4.668;2022-10-16T01:28:01;4.70;;;1.37;;
21601;SDS011;10963;50.934;4.668;2022-10-16T01:30:30;1.67;;;1.20;;
21601;SDS011;10963;50.934;4.668;2022-10-16T01:35:46;3.90;;;1.40;;
21601;SDS011;10963;50.934;4.668;2022-10-16T01:38:19;2.13;;;1.33;;
21601;SDS011;10963;50.934;4.668;2022-10-16T01:40:54;5.10;;;1.17;;
21601;SDS011;10963;50.934;4.668;2022-10-16T01:43:25;1.53;;;1.07;;
21601;SDS011;10963;50.934;4.668;2022-10-16T01:45:57;1.47;;;1.37;;
21601;SDS011;10963;50.934;4.668;2022-10-16T01:48:25;2.90;;;1.37;;
21601;SDS011;10963;50.934;4.668;2022-10-16T01:51:02;1.63;;;1.40;;
21601;SDS011;10963;50.934;4.668;2022-10-16T01:53:31;2.03;;;1.60;;
21601;SDS011;10963;50.934;4.668;2022-10-16T01:56:00;4.30;;;1.40;;
21601;SDS011;10963;50.934;4.668;2022-10-16T01:58:30;2.67;;;1.40;;
21601;SDS011;10963;50.934;4.668;2022-10-16T02:01:03;3.30;;;1.33;;
21601;SDS011;10963;50.934;4.668;2022-10-16T02:03:34;2.33;;;1.40;;
21601;SDS011;10963;50.934;4.668;2022-10-16T02:06:04;1.97;;;1.30;;
21601;SDS011;10963;50.934;4.668;2022-10-16T02:08:35;1.63;;;1.30;;
21601;SDS011;10963;50.934;4.668;2022-10-16T02:11:05;3.27;;;1.33;;
21601;SDS011;10963;50.934;4.668;2022-10-16T02:13:45;2.30;;;1.50;;
21601;SDS011;10963;50.934;4.668;2022-10-16T02:16:18;1.73;;;1.53;;
21601;SDS011;10963;50.934;4.668;2022-10-16T02:18:44;1.40;;;1.30;;
21601;SDS011;10963;50.934;4.668;2022-10-16T02:21:25;2.50;;;1.57;;
21601;SDS011;10963;50.934;4.668;2022-10-16T02:24:16;3.00;;;1.37;;
21601;SDS011;10963;50.934;4.668;2022-10-16T02:27:13;2.07;;;1.40;;
21601;SDS011;10963;50.934;4.668;2022-10-16T02:30:07;2.13;;;1.43;;
21601;SDS011;10963;50.934;4.668;2022-10-16T02:32:33;1.87;;;1.50;;
21601;SDS011;10963;50.934;4.668;2022-10-16T02:35:01;1.70;;;1.40;;
21601;SDS011;10963;50.934;4.668;2022-10-16T02:37:28;2.70;;;1.60;;
21601;SDS011;10963;50.934;4.668;2022-10-16T02:39:55;1.50;;;1.40;;
21601;SDS011;10963;50.934;4.668;2022-10-16T02:42:28;9.60;;;1.90;;
21601;SDS011;10963;50.934;4.668;2022-10-16T02:44:57;3.07;;;1.67;;
21601;SDS011;10963;50.934;4.668;2022-10-16T02:47:23;2.03;;;1.50;;
21601;SDS011;10963;50.934;4.668;2022-10-16T02:49:51;3.90;;;1.40;;
21601;SDS011;10963;50.934;4.668;2022-10-16T02:52:16;3.97;;;1.80;;
21601;SDS011;10963;50.934;4.668;2022-10-16T02:54:44;3.00;;;1.67;;
21601;SDS011;10963;50.934;4.668;2022-10-16T02:57:12;5.20;;;1.80;;
21601;SDS011;10963;50.934;4.668;2022-10-16T02:59:38;1.60;;;1.50;;
21601;SDS011;10963;50.934;4.668;2022-10-16T03:02:04;2.60;;;1.50;;
21601;SDS011;10963;50.934;4.668;2022-10-16T03:04:32;2.10;;;1.70;;
21601;SDS011;10963;50.934;4.668;2022-10-16T03:06:58;3.40;;;1.73;;
21601;SDS011;10963;50.934;4.668;2022-10-16T03:09:26;8.27;;;2.20;;
21601;SDS011;10963;50.934;4.668;2022-10-16T03:11:56;4.47;;;1.60;;
21601;SDS011;10963;50.934;4.668;2022-10-16T03:14:22;3.43;;;1.70;;
21601;SDS011;10963;50.934;4.668;2022-10-16T03:16:50;4.43;;;1.70;;
21601;SDS011;10963;50.934;4.668;2022-10-16T03:19:16;1.67;;;1.37;;
21601;SDS011;10963;50.934;4.668;2022-10-16T03:21:43;1.93;;;1.50;;
21601;SDS011;10963;50.934;4.668;2022-10-16T03:24:09;1.90;;;1.60;;
21601;SDS011;10963;50.934;4.668;2022-10-16T03:26:37;2.27;;;1.80;;
21601;SDS011;10963;50.934;4.668;2022-10-16T03:29:05;3.73;;;1.70;;
21601;SDS011;10963;50.934;4.668;2022-10-16T03:31:34;3.17;;;1.73;;
21601;SDS011;10963;50.934;4.668;2022-10-16T03:34:02;3.47;;;2.20;;
21601;SDS011;10963;50.934;4.668;2022-10-16T03:36:33;3.13;;;1.80;;
21601;SDS011;10963;50.934;4.668;2022-10-16T03:38:58;2.20;;;1.70;;
21601;SDS011;10963;50.934;4.668;2022-10-16T03:41:26;5.37;;;1.83;;
21601;SDS011;10963;50.934;4.668;2022-10-16T03:43:52;3.97;;;1.73;;
21601;SDS011;10963;50.934;4.668;2022-10-16T03:46:17;5.67;;;1.80;;
21601;SDS011;10963;50.934;4.668;2022-10-16T03:48:43;2.73;;;1.80;;
21601;SDS011;10963;50.934;4.668;2022-10-16T03:51:09;3.33;;;1.60;;
21601;SDS011;10963;50.934;4.668;2022-10-16T03:53:34;2.87;;;1.90;;
21601;SDS011;10963;50.934;4.668;2022-10-16T03:56:00;5.43;;;1.97;;
21601;SDS011;10963;50.934;4.668;2022-10-16T03:58:26;1.70;;;1.60;;
21601;SDS011;10963;50.934;4.668;2022-10-16T04:00:51;5.10;;;1.90;;
21601;SDS011;10963;50.934;4.668;2022-10-16T04:03:20;4.10;;;1.80;;
21601;SDS011;10963;50.934;4.668;2022-10-16T04:05:46;2.83;;;1.83;;
21601;SDS011;10963;50.934;4.668;2022-10-16T04:08:12;3.80;;;2.33;;
21601;SDS011;10963;50.934;4.668;2022-10-16T04:10:41;4.30;;;2.00;;
21601;SDS011;10963;50.934;4.668;2022-10-16T04:13:08;2.50;;;1.80;;
21601;SDS011;10963;50.934;4.668;2022-10-16T04:15:37;3.57;;;2.07;;
21601;SDS011;10963;50.934;4.668;2022-10-16T04:18:05;2.70;;;1.93;;
21601;SDS011;10963;50.934;4.668;2022-10-16T04:20:31;5.00;;;1.93;;
21601;SDS011;10963;50.934;4.668;2022-10-16T04:23:00;3.00;;;2.00;;
21601;SDS011;10963;50.934;4.668;2022-10-16T04:25:26;2.67;;;1.80;;
21601;SDS011;10963;50.934;4.668;2022-10-16T04:27:57;2.87;;;1.87;;
21601;SDS011;10963;50.934;4.668;2022-10-16T04:30:23;4.83;;;2.63;;
21601;SDS011;10963;50.934;4.668;2022-10-16T04:32:49;1.70;;;1.60;;
21601;SDS011;10963;50.934;4.668;2022-10-16T04:35:16;2.97;;;2.00;;
21601;SDS011;10963;50.934;4.668;2022-10-16T04:37:43;2.97;;;2.00;;
21601;SDS011;10963;50.934;4.668;2022-10-16T04:40:09;4.07;;;2.00;;
21601;SDS011;10963;50.934;4.668;2022-10-16T04:42:34;2.13;;;1.90;;
21601;SDS011;10963;50.934;4.668;2022-10-16T04:45:02;4.83;;;2.53;;
21601;SDS011;10963;50.934;4.668;2022-10-16T04:47:31;2.60;;;1.80;;
21601;SDS011;10963;50.934;4.668;2022-10-16T04:50:05;6.60;;;2.50;;
21601;SDS011;10963;50.934;4.668;2022-10-16T04:52:31;4.43;;;2.40;;
21601;SDS011;10963;50.934;4.668;2022-10-16T04:55:02;2.67;;;1.90;;
21601;SDS011;10963;50.934;4.668;2022-10-16T04:57:28;6.43;;;2.20;;
21601;SDS011;10963;50.934;4.668;2022-10-16T04:59:58;4.40;;;2.20;;
21601;SDS011;10963;50.934;4.668;2022-10-16T05:02:26;5.53;;;2.43;;
21601;SDS011;10963;50.934;4.668;2022-10-16T05:04:55;2.47;;;2.10;;
21601;SDS011;10963;50.934;4.668;2022-10-16T05:07:22;3.20;;;1.90;;
21601;SDS011;10963;50.934;4.668;2022-10-16T05:09:50;6.07;;;2.20;;
21601;SDS011;10963;50.934;4.668;2022-10-16T05:12:16;5.53;;;2.27;;
21601;SDS011;10963;50.934;4.668;2022-10-16T05:14:42;3.50;;;2.23;;
21601;SDS011;10963;50.934;4.668;2022-10-16T05:17:08;3.03;;;2.07;;
21601;SDS011;10963;50.934;4.668;2022-10-16T05:19:34;4.10;;;2.27;;
21601;SDS011;10963;50.934;4.668;2022-10-16T05:22:00;6.33;;;2.40;;
21601;SDS011;10963;50.934;4.668;2022-10-16T05:24:30;4.50;;;2.50;;
21601;SDS011;10963;50.934;4.668;2022-10-16T05:27:02;3.60;;;1.90;;
21601;SDS011;10963;50.934;4.668;2022-10-16T05:29:27;4.47;;;2.00;;
21601;SDS011;10963;50.934;4.668;2022-10-16T05:31:56;5.73;;;2.23;;
21601;SDS011;10963;50.934;4.668;2022-10-16T05:34:27;4.23;;;2.27;;
21601;SDS011;10963;50.934;4.668;2022-10-16T05:36:57;3.13;;;2.00;;
21601;SDS011;10963;50.934;4.668;2022-10-16T05:39:25;4.27;;;2.63;;
21601;SDS011;10963;50.934;4.668;2022-10-16T05:41:53;3.70;;;2.00;;
21601;SDS011;10963;50.934;4.668;2022-10-16T05:44:21;6.47;;;2.30;;
21601;SDS011;10963;50.934;4.668;2022-10-16T05:46:50;4.43;;;2.00;;
21601;SDS011;10963;50.934;4.668;2022-10-16T05:49:18;5.03;;;2.10;;
21601;SDS011;10963;50.934;4.668;2022-10-16T05:51:46;5.47;;;2.30;;
21601;SDS011;10963;50.934;4.668;2022-10-16T05:54:14;4.47;;;2.50;;
21601;SDS011;10963;50.934;4.668;2022-10-16T05:56:40;2.50;;;2.20;;
21601;SDS011;10963;50.934;4.668;2022-10-16T05:59:05;5.33;;;2.57;;
21601;SDS011;10963;50.934;4.668;2022-10-16T06:01:34;4.60;;;2.40;;
21601;SDS011;10963;50.934;4.668;2022-10-16T06:04:00;6.57;;;2.60;;
21601;SDS011;10963;50.934;4.668;2022-10-16T06:06:29;7.27;;;2.77;;
21601;SDS011;10963;50.934;4.668;2022-10-16T06:08:58;4.27;;;2.13;;
21601;SDS011;10963;50.934;4.668;2022-10-16T06:11:26;5.10;;;2.63;;
21601;SDS011;10963;50.934;4.668;2022-10-16T06:13:57;5.20;;;2.53;;
21601;SDS011;10963;50.934;4.668;2022-10-16T06:16:26;5.73;;;2.30;;
21601;SDS011;10963;50.934;4.668;2022-10-16T06:18:53;3.43;;;2.40;;
21601;SDS011;10963;50.934;4.668;2022-10-16T06:21:21;3.07;;;2.30;;
21601;SDS011;10963;50.934;4.668;2022-10-16T06:23:49;5.57;;;2.83;;
21601;SDS011;10963;50.934;4.668;2022-10-16T06:26:16;3.90;;;2.47;;
21601;SDS011;10963;50.934;4.668;2022-10-16T06:28:44;4.67;;;2.30;;
21601;SDS011;10963;50.934;4.668;2022-10-16T06:31:10;4.57;;;2.30;;
21601;SDS011;10963;50.934;4.668;2022-10-16T06:33:37;5.23;;;2.60;;
21601;SDS011;10963;50.934;4.668;2022-10-16T06:36:04;7.97;;;2.63;;
21601;SDS011;10963;50.934;4.668;2022-10-16T06:38:33;3.80;;;2.77;;
21601;SDS011;10963;50.934;4.668;2022-10-16T06:41:00;4.17;;;2.40;;
21601;SDS011;10963;50.934;4.668;2022-10-16T06:43:26;4.77;;;2.73;;
21601;SDS011;10963;50.934;4.668;2022-10-16T06:46:01;7.10;;;2.60;;
21601;SDS011;10963;50.934;4.668;2022-10-16T06:48:30;3.80;;;2.50;;
21601;SDS011;10963;50.934;4.668;2022-10-16T06:53:34;5.20;;;2.53;;
21601;SDS011;10963;50.934;4.668;2022-10-16T06:56:11;4.97;;;2.37;;
21601;SDS011;10963;50.934;4.668;2022-10-16T06:58:39;3.87;;;2.60;;
21601;SDS011;10963;50.934;4.668;2022-10-16T07:01:05;6.33;;;2.60;;
21601;SDS011;10963;50.934;4.668;2022-10-16T07:03:32;3.47;;;2.40;;
21601;SDS011;10963;50.934;4.668;2022-10-16T07:06:01;7.63;;;2.60;;
21601;SDS011;10963;50.934;4.668;2022-10-16T07:08:30;4.57;;;2.37;;
21601;SDS011;10963;50.934;4.668;2022-10-16T07:10:58;6.00;;;2.20;;
21601;SDS011;10963;50.934;4.668;2022-10-16T07:13:31;8.67;;;2.63;;
21601;SDS011;10963;50.934;4.668;2022-10-16T07:16:11;3.23;;;2.10;;
21601;SDS011;10963;50.934;4.668;2022-10-16T07:18:42;4.37;;;2.43;;
21601;SDS011;10963;50.934;4.668;2022-10-16T07:21:12;5.37;;;2.37;;
21601;SDS011;10963;50.934;4.668;2022-10-16T07:23:42;6.63;;;2.73;;
21601;SDS011;10963;50.934;4.668;2022-10-16T07:26:09;3.20;;;2.30;;
21601;SDS011;10963;50.934;4.668;2022-10-16T07:28:38;4.53;;;2.07;;
21601;SDS011;10963;50.934;4.668;2022-10-16T07:31:05;2.00;;;1.80;;
21601;SDS011;10963;50.934;4.668;2022-10-16T07:33:33;2.93;;;1.67;;
21601;SDS011;10963;50.934;4.668;2022-10-16T07:35:59;3.73;;;1.90;;
21601;SDS011;10963;50.934;4.668;2022-10-16T07:38:28;6.30;;;1.93;;
21601;SDS011;10963;50.934;4.668;2022-10-16T07:40:58;4.97;;;1.80;;
21601;SDS011;10963;50.934;4.668;2022-10-16T07:43:30;3.43;;;2.30;;
21601;SDS011;10963;50.934;4.668;2022-10-16T07:46:00;5.13;;;2.10;;
21601;SDS011;10963;50.934;4.668;2022-10-16T07:48:30;5.93;;;1.80;;
21601;SDS011;10963;50.934;4.668;2022-10-16T07:51:00;5.03;;;2.00;;
21601;SDS011;10963;50.934;4.668;2022-10-16T07:53:27;3.17;;;1.80;;
21601;SDS011;10963;50.934;4.668;2022-10-16T07:55:57;4.83;;;1.80;;
21601;SDS011;10963;50.934;4.668;2022-10-16T07:58:24;5.53;;;3.33;;
21601;SDS011;10963;50.934;4.668;2022-10-16T08:00:55;4.07;;;2.17;;
21601;SDS011;10963;50.934;4.668;2022-10-16T08:03:21;3.40;;;2.17;;
21601;SDS011;10963;50.934;4.668;2022-10-16T08:05:49;2.03;;;1.83;;
21601;SDS011;10963;50.934;4.668;2022-10-16T08:08:16;3.87;;;1.83;;
21601;SDS011;10963;50.934;4.668;2022-10-16T08:10:43;5.47;;;2.20;;
21601;SDS011;10963;50.934;4.668;2022-10-16T08:13:08;4.93;;;1.73;;
21601;SDS011;10963;50.934;4.668;2022-10-16T08:15:39;1.80;;;1.40;;
21601;SDS011;10963;50.934;4.668;2022-10-16T08:18:09;4.53;;;1.57;;
21601;SDS011;10963;50.934;4.668;2022-10-16T08:20:36;7.33;;;1.73;;
21601;SDS011;10963;50.934;4.668;2022-10-16T08:23:02;6.97;;;2.13;;
21601;SDS011;10963;50.934;4.668;2022-10-16T08:25:32;2.20;;;1.60;;
21601;SDS011;10963;50.934;4.668;2022-10-16T08:28:02;4.37;;;1.50;;
21601;SDS011;10963;50.934;4.668;2022-10-16T08:30:31;5.20;;;1.77;;
21601;SDS011;10963;50.934;4.668;2022-10-16T08:33:00;4.87;;;1.60;;
21601;SDS011;10963;50.934;4.668;2022-10-16T08:35:27;3.10;;;1.80;;
21601;SDS011;10963;50.934;4.668;2022-10-16T08:37:54;1.83;;;1.60;;
21601;SDS011;10963;50.934;4.668;2022-10-16T08:40:20;1.87;;;1.50;;
21601;SDS011;10963;50.934;4.668;2022-10-16T08:48:19;5.63;;;1.60;;
21601;SDS011;10963;50.934;4.668;2022-10-16T08:50:54;4.73;;;1.73;;
21601;SDS011;10963;50.934;4.668;2022-10-16T08:53:28;6.00;;;1.43;;
21601;SDS011;10963;50.934;4.668;2022-10-16T08:55:58;5.37;;;1.40;;
21601;SDS011;10963;50.934;4.668;2022-10-16T08:58:28;4.37;;;1.50;;
21601;SDS011;10963;50.934;4.668;2022-10-16T09:00:58;3.60;;;1.87;;
21601;SDS011;10963;50.934;4.668;2022-10-16T09:09:19;4.13;;;1.10;;
21601;SDS011;10963;50.934;4.668;2022-10-16T09:11:53;4.77;;;1.47;;
21601;SDS011;10963;50.934;4.668;2022-10-16T09:22:36;5.93;;;1.57;;
21601;SDS011;10963;50.934;4.668;2022-10-16T09:25:10;5.87;;;1.70;;
21601;SDS011;10963;50.934;4.668;2022-10-16T09:27:44;3.73;;;1.50;;
21601;SDS011;10963;50.934;4.668;2022-10-16T09:30:19;6.10;;;1.30;;
21601;SDS011;10963;50.934;4.668;2022-10-16T09:32:47;4.17;;;1.73;;
21601;SDS011;10963;50.934;4.668;2022-10-16T09:35:18;5.80;;;1.77;;
21601;SDS011;10963;50.934;4.668;2022-10-16T09:37:50;5.40;;;1.00;;
21601;SDS011;10963;50.934;4.668;2022-10-16T09:40:24;3.87;;;1.13;;
21601;SDS011;10963;50.934;4.668;2022-10-16T09:48:47;3.43;;;1.23;;
21601;SDS011;10963;50.934;4.668;2022-10-16T09:51:30;3.83;;;1.83;;
21601;SDS011;10963;50.934;4.668;2022-10-16T09:54:01;4.13;;;1.57;;
21601;SDS011;10963;50.934;4.668;2022-10-16T09:56:34;4.30;;;1.30;;
21601;SDS011;10963;50.934;4.668;2022-10-16T09:59:13;6.90;;;1.87;;
21601;SDS011;10963;50.934;4.668;2022-10-16T10:01:47;5.30;;;1.33;;
21601;SDS011;10963;50.934;4.668;2022-10-16T10:04:18;6.40;;;1.53;;
21601;SDS011;10963;50.934;4.668;2022-10-16T10:06:46;4.53;;;1.20;;
21601;SDS011;10963;50.934;4.668;2022-10-16T10:14:18;4.03;;;1.40;;
21601;SDS011;10963;50.934;4.668;2022-10-16T10:19:56;4.67;;;1.37;;
21601;SDS011;10963;50.934;4.668;2022-10-16T10:33:43;9.57;;;1.73;;
21601;SDS011;10963;50.934;4.668;2022-10-16T10:38:56;7.60;;;1.50;;
21601;SDS011;10963;50.934;4.668;2022-10-16T10:50:02;3.17;;;1.10;;
21601;SDS011;10963;50.934;4.668;2022-10-16T11:01:07;3.50;;;1.63;;
21601;SDS011;10963;50.934;4.668;2022-10-16T11:09:51;10.63;;;1.40;;
21601;SDS011;10963;50.934;4.668;2022-10-16T11:12:39;4.83;;;1.13;;
21601;SDS011;10963;50.934;4.668;2022-10-16T11:17:55;3.20;;;0.93;;
21601;SDS011;10963;50.934;4.668;2022-10-16T11:20:45;4.50;;;1.10;;
21601;SDS011;10963;50.934;4.668;2022-10-16T11:23:26;3.80;;;1.00;;
21601;SDS011;10963;50.934;4.668;2022-10-16T11:26:16;6.50;;;1.30;;
21601;SDS011;10963;50.934;4.668;2022-10-16T11:28:49;5.10;;;1.00;;
21601;SDS011;10963;50.934;4.668;2022-10-16T11:31:19;5.30;;;1.00;;
21601;SDS011;10963;50.934;4.668;2022-10-16T11:34:08;4.90;;;1.00;;
21601;SDS011;10963;50.934;4.668;2022-10-16T11:36:50;4.67;;;1.20;;
21601;SDS011;10963;50.934;4.668;2022-10-16T11:39:37;2.33;;;1.00;;
21601;SDS011;10963;50.934;4.668;2022-10-16T11:42:10;2.60;;;1.00;;
21601;SDS011;10963;50.934;4.668;2022-10-16T11:48:01;2.57;;;1.00;;
21601;SDS011;10963;50.934;4.668;2022-10-16T11:56:03;3.97;;;1.13;;
21601;SDS011;10963;50.934;4.668;2022-10-16T11:58:33;5.17;;;1.20;;
21601;SDS011;10963;50.934;4.668;2022-10-16T12:06:34;2.57;;;0.77;;
21601;SDS011;10963;50.934;4.668;2022-10-16T12:11:55;2.40;;;1.20;;
21601;SDS011;10963;50.934;4.668;2022-10-16T12:14:38;4.83;;;0.93;;
21601;SDS011;10963;50.934;4.668;2022-10-16T12:22:52;6.20;;;1.37;;
21601;SDS011;10963;50.934;4.668;2022-10-16T12:28:25;3.23;;;1.40;;
21601;SDS011;10963;50.934;4.668;2022-10-16T12:31:06;3.13;;;0.90;;
21601;SDS011;10963;50.934;4.668;2022-10-16T12:33:40;3.73;;;1.20;;
21601;SDS011;10963;50.934;4.668;2022-10-16T12:36:28;4.97;;;1.23;;
21601;SDS011;10963;50.934;4.668;2022-10-16T12:38:57;1.80;;;0.90;;
21601;SDS011;10963;50.934;4.668;2022-10-16T12:41:33;1.67;;;1.13;;
21601;SDS011;10963;50.934;4.668;2022-10-16T12:44:02;3.53;;;1.20;;
21601;SDS011;10963;50.934;4.668;2022-10-16T12:51:37;2.30;;;0.80;;
21601;SDS011;10963;50.934;4.668;2022-10-16T12:59:42;3.37;;;0.90;;
21601;SDS011;10963;50.934;4.668;2022-10-16T13:05:20;3.27;;;1.07;;
21601;SDS011;10963;50.934;4.668;2022-10-16T13:10:42;5.63;;;1.30;;
21601;SDS011;10963;50.934;4.668;2022-10-16T13:16:01;3.27;;;1.30;;
21601;SDS011;10963;50.934;4.668;2022-10-16T13:27:07;3.07;;;1.10;;
21601;SDS011;10963;50.934;4.668;2022-10-16T13:29:54;2.27;;;0.90;;
21601;SDS011;10963;50.934;4.668;2022-10-16T13:32:36;5.20;;;1.20;;
21601;SDS011;10963;50.934;4.668;2022-10-16T13:35:15;3.43;;;1.10;;
21601;SDS011;10963;50.934;4.668;2022-10-16T13:37:49;2.63;;;1.07;;
21601;SDS011;10963;50.934;4.668;2022-10-16T13:40:20;6.67;;;1.10;;
21601;SDS011;10963;50.934;4.668;2022-10-16T13:42:47;2.60;;;1.00;;
21601;SDS011;10963;50.934;4.668;2022-10-16T13:45:19;1.53;;;1.10;;
21601;SDS011;10963;50.934;4.668;2022-10-16T13:47:46;7.10;;;0.90;;
21601;SDS011;10963;50.934;4.668;2022-10-16T13:50:13;3.03;;;0.93;;
21601;SDS011;10963;50.934;4.668;2022-10-16T13:52:45;3.50;;;1.10;;
21601;SDS011;10963;50.934;4.668;2022-10-16T13:55:17;2.77;;;1.03;;
21601;SDS011;10963;50.934;4.668;2022-10-16T13:57:44;3.43;;;1.00;;
21601;SDS011;10963;50.934;4.668;2022-10-16T14:02:53;3.33;;;1.10;;
21601;SDS011;10963;50.934;4.668;2022-10-16T14:05:26;5.50;;;1.00;;
21601;SDS011;10963;50.934;4.668;2022-10-16T14:07:54;3.77;;;0.93;;
21601;SDS011;10963;50.934;4.668;2022-10-16T14:12:58;6.00;;;1.20;;
21601;SDS011;10963;50.934;4.668;2022-10-16T14:15:29;5.83;;;1.43;;
21601;SDS011;10963;50.934;4.668;2022-10-16T14:17:59;5.73;;;1.20;;
21601;SDS011;10963;50.934;4.668;2022-10-16T14:20:28;2.70;;;1.40;;
21601;SDS011;10963;50.934;4.668;2022-10-16T14:23:01;4.33;;;1.53;;
21601;SDS011;10963;50.934;4.668;2022-10-16T14:25:45;4.23;;;1.40;;
21601;SDS011;10963;50.934;4.668;2022-10-16T14:30:54;3.57;;;1.10;;
21601;SDS011;10963;50.934;4.668;2022-10-16T14:38:33;2.90;;;1.20;;
21601;SDS011;10963;50.934;4.668;2022-10-16T14:41:02;2.27;;;1.27;;
21601;SDS011;10963;50.934;4.668;2022-10-16T14:43:36;3.53;;;1.20;;
21601;SDS011;10963;50.934;4.668;2022-10-16T14:46:09;4.37;;;1.20;;
21601;SDS011;10963;50.934;4.668;2022-10-16T14:48:39;2.83;;;1.20;;
21601;SDS011;10963;50.934;4.668;2022-10-16T14:51:08;4.00;;;1.60;;
21601;SDS011;10963;50.934;4.668;2022-10-16T14:53:42;1.20;;;1.10;;
21601;SDS011;10963;50.934;4.668;2022-10-16T14:56:16;2.20;;;1.07;;
21601;SDS011;10963;50.934;4.668;2022-10-16T14:58:44;4.70;;;1.53;;
21601;SDS011;10963;50.934;4.668;2022-10-16T15:01:10;6.17;;;1.27;;
21601;SDS011;10963;50.934;4.668;2022-10-16T15:03:37;5.47;;;1.33;;
21601;SDS011;10963;50.934;4.668;2022-10-16T15:06:03;6.50;;;1.47;;
21601;SDS011;10963;50.934;4.668;2022-10-16T15:08:41;6.87;;;1.40;;
21601;SDS011;10963;50.934;4.668;2022-10-16T15:11:14;4.27;;;1.37;;
21601;SDS011;10963;50.934;4.668;2022-10-16T15:13:42;3.77;;;1.30;;
21601;SDS011;10963;50.934;4.668;2022-10-16T15:16:11;8.57;;;1.60;;
21601;SDS011;10963;50.934;4.668;2022-10-16T15:18:43;3.77;;;1.27;;
21601;SDS011;10963;50.934;4.668;2022-10-16T15:23:54;2.93;;;1.23;;
21601;SDS011;10963;50.934;4.668;2022-10-16T15:26:21;4.30;;;1.13;;
21601;SDS011;10963;50.934;4.668;2022-10-16T15:28:48;4.73;;;1.70;;
21601;SDS011;10963;50.934;4.668;2022-10-16T15:31:13;3.47;;;1.20;;
21601;SDS011;10963;50.934;4.668;2022-10-16T15:33:39;11.00;;;2.20;;
21601;SDS011;10963;50.934;4.668;2022-10-16T15:36:05;3.23;;;1.20;;
21601;SDS011;10963;50.934;4.668;2022-10-16T15:38:34;3.17;;;1.20;;
21601;SDS011;10963;50.934;4.668;2022-10-16T15:41:00;4.80;;;1.50;;
21601;SDS011;10963;50.934;4.668;2022-10-16T15:43:26;3.43;;;1.40;;
21601;SDS011;10963;50.934;4.668;2022-10-16T15:46:02;3.87;;;1.47;;
21601;SDS011;10963;50.934;4.668;2022-10-16T15:48:30;4.33;;;1.57;;
21601;SDS011;10963;50.934;4.668;2022-10-16T15:50:59;2.73;;;1.47;;
21601;SDS011;10963;50.934;4.668;2022-10-16T15:53:27;5.93;;;1.80;;
21601;SDS011;10963;50.934;4.668;2022-10-16T15:55:57;3.60;;;1.43;;
21601;SDS011;10963;50.934;4.668;2022-10-16T15:58:27;5.33;;;1.70;;
21601;SDS011;10963;50.934;4.668;2022-10-16T16:00:57;3.23;;;2.00;;
21601;SDS011;10963;50.934;4.668;2022-10-16T16:03:25;5.17;;;1.77;;
21601;SDS011;10963;50.934;4.668;2022-10-16T16:05:52;8.17;;;2.10;;
21601;SDS011;10963;50.934;4.668;2022-10-16T16:08:18;3.10;;;2.07;;
21601;SDS011;10963;50.934;4.668;2022-10-16T16:10:44;4.63;;;2.03;;
21601;SDS011;10963;50.934;4.668;2022-10-16T16:13:10;8.53;;;2.50;;
21601;SDS011;10963;50.934;4.668;2022-10-16T16:15:38;2.70;;;2.03;;
21601;SDS011;10963;50.934;4.668;2022-10-16T16:18:05;4.67;;;2.23;;
21601;SDS011;10963;50.934;4.668;2022-10-16T16:20:35;6.67;;;2.00;;
21601;SDS011;10963;50.934;4.668;2022-10-16T16:23:01;3.93;;;1.93;;
21601;SDS011;10963;50.934;4.668;2022-10-16T16:25:26;5.73;;;2.50;;
21601;SDS011;10963;50.934;4.668;2022-10-16T16:27:55;2.17;;;1.97;;
21601;SDS011;10963;50.934;4.668;2022-10-16T16:30:23;3.43;;;1.83;;
21601;SDS011;10963;50.934;4.668;2022-10-16T16:32:53;4.97;;;2.10;;
21601;SDS011;10963;50.934;4.668;2022-10-16T16:35:22;6.37;;;1.70;;
21601;SDS011;10963;50.934;4.668;2022-10-16T16:37:48;4.63;;;2.00;;
21601;SDS011;10963;50.934;4.668;2022-10-16T16:40:14;4.43;;;1.90;;
21601;SDS011;10963;50.934;4.668;2022-10-16T16:42:41;2.43;;;1.67;;
21601;SDS011;10963;50.934;4.668;2022-10-16T16:45:12;6.10;;;2.47;;
21601;SDS011;10963;50.934;4.668;2022-10-16T16:47:38;3.27;;;1.90;;
21601;SDS011;10963;50.934;4.668;2022-10-16T16:50:03;2.43;;;1.80;;
21601;SDS011;10963;50.934;4.668;2022-10-16T16:52:31;12.17;;;2.30;;
21601;SDS011;10963;50.934;4.668;2022-10-16T16:54:58;3.63;;;2.00;;
21601;SDS011;10963;50.934;4.668;2022-10-16T16:57:24;7.73;;;1.80;;
21601;SDS011;10963;50.934;4.668;2022-10-16T16:59:52;3.90;;;1.87;;
21601;SDS011;10963;50.934;4.668;2022-10-16T17:02:20;5.90;;;2.30;;
21601;SDS011;10963;50.934;4.668;2022-10-16T17:04:48;4.50;;;2.00;;
21601;SDS011;10963;50.934;4.668;2022-10-16T17:07:16;5.00;;;2.40;;
21601;SDS011;10963;50.934;4.668;2022-10-16T17:09:46;3.97;;;2.00;;
21601;SDS011;10963;50.934;4.668;2022-10-16T17:12:12;4.73;;;1.73;;
21601;SDS011;10963;50.934;4.668;2022-10-16T17:14:38;7.00;;;2.00;;
21601;SDS011;10963;50.934;4.668;2022-10-16T17:17:07;14.57;;;6.37;;
21601;SDS011;10963;50.934;4.668;2022-10-16T17:19:33;10.67;;;4.37;;
21601;SDS011;10963;50.934;4.668;2022-10-16T17:21:59;9.37;;;4.33;;
21601;SDS011;10963;50.934;4.668;2022-10-16T17:24:27;6.43;;;3.53;;
21601;SDS011;10963;50.934;4.668;2022-10-16T17:26:53;6.50;;;3.17;;
21601;SDS011;10963;50.934;4.668;2022-10-16T17:29:19;8.00;;;3.27;;
21601;SDS011;10963;50.934;4.668;2022-10-16T17:31:45;7.37;;;3.27;;
21601;SDS011;10963;50.934;4.668;2022-10-16T17:34:13;12.67;;;3.20;;
21601;SDS011;10963;50.934;4.668;2022-10-16T17:36:44;9.80;;;3.37;;
21601;SDS011;10963;50.934;4.668;2022-10-16T17:39:12;8.17;;;2.93;;
21601;SDS011;10963;50.934;4.668;2022-10-16T17:41:38;16.87;;;4.47;;
21601;SDS011;10963;50.934;4.668;2022-10-16T17:44:04;7.57;;;4.27;;
21601;SDS011;10963;50.934;4.668;2022-10-16T17:46:31;10.67;;;4.80;;
21601;SDS011;10963;50.934;4.668;2022-10-16T17:49:00;8.73;;;3.77;;